Time,TemperatureF,DewpointF,PressureIn,WindDirection,WindDirectionDegrees,WindSpeedMPH,WindSpeedGustMPH,Humidity,HourlyPrecipIn,Conditions,Clouds,dailyrainin,SoftwareType,DateUTC
2014-09-22 00:11:00,57.4,43.6,29.47,South,180,0.0,-999.0,60,-99.99,,,0.00,Acu-Link.com,2014-09-22 04:11:00,
2014-09-22 00:27:00,56.7,41.6,29.47,SW,225,0.0,-999.0,57,-99.99,,,0.00,Acu-Link.com,2014-09-22 04:27:00,
2014-09-22 00:50:00,55.8,36.9,29.48,South,180,1.1,-999.0,49,-99.99,,,0.00,Acu-Link.com,2014-09-22 04:50:00,
2014-09-22 01:05:00,56.3,36.3,29.48,SE,135,0.0,-999.0,47,-99.99,,,0.00,Acu-Link.com,2014-09-22 05:05:00,
2014-09-22 01:44:00,58.5,50.6,29.48,NE,45,0.0,-999.0,75,-99.99,,,0.00,Acu-Link.com,2014-09-22 05:44:00,
2014-09-22 02:00:00,58.1,50.6,29.48,West,270,1.1,-999.0,76,-99.99,,,0.00,Acu-Link.com,2014-09-22 06:00:00,
2014-09-22 02:15:00,57.2,49.3,29.49,WSW,247,2.2,-999.0,75,-99.99,,,0.00,Acu-Link.com,2014-09-22 06:15:00,
2014-09-22 02:30:00,56.8,48.6,29.49,WNW,292,1.7,-999.0,74,-99.99,,,0.00,Acu-Link.com,2014-09-22 06:30:00,
2014-09-22 02:46:00,56.5,48.3,29.49,WSW,247,2.2,-999.0,74,-99.99,,,0.00,Acu-Link.com,2014-09-22 06:46:00,
2014-09-22 03:01:00,56.7,48.9,29.49,SW,225,2.2,-999.0,75,-99.99,,,0.00,Acu-Link.com,2014-09-22 07:01:00,
2014-09-22 03:16:00,57.0,49.2,29.50,NW,315,3.2,-999.0,75,-99.99,,,0.00,Acu-Link.com,2014-09-22 07:16:00,
2014-09-22 03:32:00,56.8,49.0,29.49,ENE,67,0.0,-999.0,75,-99.99,,,0.00,Acu-Link.com,2014-09-22 07:32:00,
2014-09-22 03:47:00,56.8,48.6,29.50,West,270,1.7,-999.0,74,-99.99,,,0.00,Acu-Link.com,2014-09-22 07:47:00,
2014-09-22 04:02:00,56.7,48.5,29.51,West,270,2.2,-999.0,74,-99.99,,,0.00,Acu-Link.com,2014-09-22 08:02:00,
2014-09-22 04:17:00,56.7,48.5,29.51,West,270,0.0,-999.0,74,-99.99,,,0.00,Acu-Link.com,2014-09-22 08:17:00,
2014-09-22 04:33:00,57.0,48.8,29.52,WSW,247,3.2,-999.0,74,-99.99,,,0.00,Acu-Link.com,2014-09-22 08:33:00,
2014-09-22 04:48:00,57.4,49.5,29.53,South,180,1.7,-999.0,75,-99.99,,,0.00,Acu-Link.com,2014-09-22 08:48:00,
2014-09-22 05:03:00,57.2,49.3,29.53,West,270,3.7,-999.0,75,-99.99,,,0.00,Acu-Link.com,2014-09-22 09:03:00,
2014-09-22 05:18:00,57.0,47.7,29.55,SW,225,2.7,-999.0,71,-99.99,,,0.00,Acu-Link.com,2014-09-22 09:18:00,
2014-09-22 05:33:00,56.3,43.9,29.56,NE,45,2.7,-999.0,63,-99.99,,,0.00,Acu-Link.com,2014-09-22 09:33:00,
2014-09-22 05:48:00,55.6,44.4,29.57,WSW,247,4.7,-999.0,66,-99.99,,,0.00,Acu-Link.com,2014-09-22 09:48:00,
2014-09-22 06:04:00,55.4,46.2,29.59,SW,225,3.7,-999.0,71,-99.99,,,0.00,Acu-Link.com,2014-09-22 10:04:00,
2014-09-22 06:19:00,55.0,46.5,29.61,South,180,2.2,-999.0,73,-99.99,,,0.00,Acu-Link.com,2014-09-22 10:19:00,